createdAt,value
2023-11-12T00:01:09.065Z,1.90
2023-11-12T00:03:35.812Z,1.67
2023-11-12T00:06:02.455Z,1.30
2023-11-12T00:08:29.154Z,1.55
2023-11-12T00:10:55.810Z,1.40
2023-11-12T00:13:22.704Z,1.70
2023-11-12T00:15:49.402Z,1.67
2023-11-12T00:18:17.530Z,1.48
2023-11-12T00:20:44.987Z,2.70
2023-11-12T00:23:13.560Z,2.05
2023-11-12T00:25:40.342Z,2.30
2023-11-12T00:28:06.914Z,2.13
2023-11-12T00:30:33.765Z,2.85
2023-11-12T00:33:00.462Z,4.57
2023-11-12T00:35:27.163Z,5.85
2023-11-12T00:37:54.495Z,5.15
2023-11-12T00:40:22.486Z,6.10
2023-11-12T00:42:49.093Z,6.40
2023-11-12T00:45:15.844Z,3.65
2023-11-12T00:47:42.524Z,2.65
2023-11-12T00:50:09.868Z,3.60
2023-11-12T00:52:36.603Z,3.97
2023-11-12T00:55:03.461Z,2.67
2023-11-12T00:57:30.652Z,3.70
2023-11-12T00:59:57.459Z,2.13
2023-11-12T01:02:25.121Z,2.95
2023-11-12T01:04:51.934Z,2.80
2023-11-12T01:07:20.202Z,2.35
2023-11-12T01:09:47.424Z,1.95
2023-11-12T01:12:14.490Z,2.55
2023-11-12T01:14:41.244Z,3.08
2023-11-12T01:17:07.927Z,2.15
2023-11-12T01:19:34.560Z,3.13
2023-11-12T01:22:01.195Z,2.72
2023-11-12T01:24:27.887Z,2.25
2023-11-12T01:26:55.025Z,1.48
2023-11-12T01:29:21.821Z,2.28
2023-11-12T01:31:48.573Z,1.98
2023-11-12T01:34:15.374Z,2.97
2023-11-12T01:36:42.075Z,1.92
2023-11-12T01:39:09.669Z,1.25
2023-11-12T01:41:36.342Z,1.08
2023-11-12T01:44:03.829Z,1.00
2023-11-12T01:46:31.066Z,0.82
2023-11-12T01:48:58.524Z,1.00
2023-11-12T01:51:25.940Z,0.80
2023-11-12T01:53:53.799Z,2.67
2023-11-12T01:56:22.132Z,5.30
2023-11-12T01:58:53.903Z,5.72
2023-11-12T02:03:49.916Z,2.80
2023-11-12T02:06:16.867Z,3.13
2023-11-12T02:08:44.334Z,2.65
2023-11-12T02:11:15.076Z,2.58
2023-11-12T02:13:43.461Z,2.77
2023-11-12T02:16:11.228Z,2.40
2023-11-12T02:18:37.948Z,2.10
2023-11-12T02:21:04.928Z,2.03
2023-11-12T02:23:31.686Z,2.45
2023-11-12T02:25:58.838Z,2.00
2023-11-12T02:28:25.433Z,1.75
2023-11-12T02:30:55.544Z,2.03
2023-11-12T02:33:28.293Z,1.20
2023-11-12T02:35:56.945Z,1.40
2023-11-12T02:38:24.620Z,1.00
2023-11-12T02:40:52.721Z,1.42
2023-11-12T02:43:19.665Z,1.40
2023-11-12T02:45:46.494Z,1.05
2023-11-12T02:48:13.195Z,1.30
2023-11-12T02:50:39.897Z,1.20
2023-11-12T02:53:08.567Z,1.25
2023-11-12T02:55:36.678Z,0.80
2023-11-12T02:58:03.870Z,1.17
2023-11-12T03:00:31.317Z,1.40
2023-11-12T03:03:00.003Z,1.67
2023-11-12T03:05:30.206Z,1.33
2023-11-12T03:07:59.425Z,1.48
2023-11-12T03:10:26.465Z,1.30
2023-11-12T03:12:53.851Z,1.60
2023-11-12T03:15:20.701Z,1.38
2023-11-12T03:17:47.374Z,1.50
2023-11-12T03:20:15.532Z,1.30
2023-11-12T03:22:43.309Z,1.23
2023-11-12T03:25:11.135Z,1.73
2023-11-12T03:27:38.572Z,1.35
2023-11-12T03:30:06.037Z,1.40
2023-11-12T03:32:32.990Z,0.80
2023-11-12T03:35:02.044Z,1.10
2023-11-12T03:37:28.884Z,2.38
2023-11-12T03:39:55.556Z,2.08
2023-11-12T03:42:23.021Z,2.63
2023-11-12T03:44:52.928Z,1.60
2023-11-12T03:47:19.553Z,1.55
2023-11-12T03:49:46.749Z,1.77
2023-11-12T03:52:13.792Z,1.10
2023-11-12T03:54:41.401Z,1.23
2023-11-12T03:57:08.210Z,1.35
2023-11-12T03:59:36.883Z,1.58
2023-11-12T04:02:05.483Z,1.52
2023-11-12T04:04:33.218Z,1.50
2023-11-12T04:07:00.000Z,1.75
2023-11-12T04:09:26.664Z,1.30
2023-11-12T04:11:53.326Z,1.23
2023-11-12T04:14:19.949Z,1.10
2023-11-12T04:16:46.542Z,1.05
2023-11-12T04:19:13.410Z,0.82
2023-11-12T04:21:40.106Z,1.35
2023-11-12T04:24:07.503Z,1.10
2023-11-12T04:26:34.277Z,0.63
2023-11-12T04:29:04.365Z,0.70
2023-11-12T04:31:31.968Z,0.93
2023-11-12T04:33:58.636Z,1.10
2023-11-12T04:36:28.540Z,1.15
2023-11-12T04:38:58.344Z,0.90
2023-11-12T04:41:28.366Z,0.82
2023-11-12T04:43:55.614Z,0.60
2023-11-12T04:46:22.674Z,0.63
2023-11-12T04:48:49.743Z,0.90
2023-11-12T04:51:18.544Z,0.70
2023-11-12T04:53:45.697Z,0.82
2023-11-12T04:56:13.136Z,0.90
2023-11-12T04:58:40.094Z,0.90
2023-11-12T05:01:07.747Z,2.05
2023-11-12T05:03:34.718Z,0.90
2023-11-12T05:06:02.725Z,1.00
2023-11-12T05:08:29.714Z,0.73
2023-11-12T05:10:56.403Z,0.70
2023-11-12T05:13:23.320Z,0.98
2023-11-12T05:15:50.008Z,0.82
2023-11-12T05:18:16.673Z,1.23
2023-11-12T05:20:43.916Z,0.80
2023-11-12T05:23:10.739Z,1.38
2023-11-12T05:25:37.329Z,0.98
2023-11-12T05:28:06.083Z,1.08
2023-11-12T05:30:34.433Z,1.20
2023-11-12T05:33:01.283Z,1.38
2023-11-12T05:35:27.875Z,0.88
2023-11-12T05:37:55.585Z,0.68
2023-11-12T05:40:22.184Z,0.70
2023-11-12T05:42:48.916Z,1.30
2023-11-12T05:45:15.713Z,0.90
2023-11-12T05:47:42.387Z,1.05
2023-11-12T05:50:09.483Z,0.90
2023-11-12T05:52:36.231Z,0.93
2023-11-12T05:55:02.847Z,1.20
2023-11-12T05:57:29.506Z,0.80
2023-11-12T05:59:56.168Z,1.13
2023-11-12T06:02:22.793Z,0.88
2023-11-12T06:04:49.557Z,0.88
2023-11-12T06:07:16.482Z,0.90
2023-11-12T06:09:44.673Z,0.70
2023-11-12T06:12:11.591Z,1.13
2023-11-12T06:14:38.281Z,0.80
2023-11-12T06:17:08.286Z,1.20
2023-11-12T06:19:35.028Z,0.88
2023-11-12T06:22:02.535Z,0.80
2023-11-12T06:24:29.990Z,1.38
2023-11-12T06:26:56.734Z,0.80
2023-11-12T06:29:25.021Z,0.80
2023-11-12T06:31:52.313Z,1.02
2023-11-12T06:34:19.945Z,1.20
2023-11-12T06:36:46.819Z,1.38
2023-11-12T06:39:16.130Z,1.77
2023-11-12T06:41:42.896Z,2.08
2023-11-12T06:44:13.272Z,1.58
2023-11-12T06:46:46.677Z,1.10
2023-11-12T06:49:13.322Z,1.00
2023-11-12T06:51:39.979Z,0.95
2023-11-12T06:54:06.745Z,1.15
2023-11-12T06:56:34.815Z,0.80
2023-11-12T06:59:03.409Z,1.08
2023-11-12T07:01:30.863Z,1.00
2023-11-12T07:03:57.675Z,1.52
2023-11-12T07:06:24.908Z,1.05
2023-11-12T07:08:51.552Z,1.10
2023-11-12T07:11:18.391Z,0.82
2023-11-12T07:13:44.983Z,0.82
2023-11-12T07:16:18.951Z,1.05
2023-11-12T07:18:53.650Z,1.10
2023-11-12T07:21:29.488Z,1.88
2023-11-12T07:23:56.442Z,0.88
2023-11-12T07:26:25.480Z,1.08
2023-11-12T07:28:53.021Z,1.05
2023-11-12T07:31:21.253Z,1.27
2023-11-12T07:33:48.009Z,1.98
2023-11-12T07:36:14.759Z,1.33
2023-11-12T07:38:41.484Z,1.33
2023-11-12T07:41:10.039Z,2.33
2023-11-12T07:43:37.805Z,1.92
2023-11-12T07:46:04.841Z,1.27
2023-11-12T07:48:32.190Z,1.08
2023-11-12T07:50:59.404Z,1.00
2023-11-12T07:53:32.731Z,1.17
2023-11-12T07:56:05.656Z,1.33
2023-11-12T07:58:42.511Z,1.23
2023-11-12T08:01:11.107Z,3.67
2023-11-12T08:03:37.905Z,4.60
2023-11-12T08:06:04.802Z,10.32
2023-11-12T08:08:31.561Z,10.55
2023-11-12T08:11:01.514Z,8.73
2023-11-12T08:13:28.444Z,8.05
2023-11-12T08:15:55.028Z,10.30
2023-11-12T08:18:21.679Z,9.90
2023-11-12T08:20:49.562Z,9.60
2023-11-12T08:23:17.926Z,10.07
2023-11-12T08:25:44.988Z,8.10
2023-11-12T08:28:13.900Z,5.30
2023-11-12T08:30:40.558Z,6.63
2023-11-12T08:33:07.258Z,4.35
2023-11-12T08:35:34.062Z,2.72
2023-11-12T08:38:00.896Z,2.85
2023-11-12T08:40:29.845Z,2.90
2023-11-12T08:42:56.579Z,5.45
2023-11-12T08:45:23.319Z,6.63
2023-11-12T08:47:49.961Z,9.75
2023-11-12T08:50:16.601Z,6.40
2023-11-12T08:52:43.207Z,5.55
2023-11-12T08:55:09.834Z,7.80
2023-11-12T08:57:36.622Z,6.15
2023-11-12T09:00:07.575Z,5.60
2023-11-12T09:02:34.589Z,5.75
2023-11-12T09:05:02.781Z,13.13
2023-11-12T09:07:29.478Z,22.83
2023-11-12T09:09:56.719Z,28.08
2023-11-12T09:12:24.286Z,23.95
2023-11-12T09:14:50.960Z,24.60
2023-11-12T09:17:17.825Z,21.85
2023-11-12T09:19:44.776Z,21.23
2023-11-12T09:22:11.686Z,4.63
2023-11-12T09:24:45.344Z,2.28
2023-11-12T09:27:19.458Z,10.75
2023-11-12T09:29:47.473Z,7.15
2023-11-12T09:32:14.218Z,7.53
2023-11-12T09:34:41.029Z,9.07
2023-11-12T09:37:10.314Z,10.10
2023-11-12T09:39:37.510Z,5.65
2023-11-12T09:42:05.207Z,2.22
2023-11-12T09:44:39.227Z,1.90
2023-11-12T09:47:26.812Z,2.53
2023-11-12T09:49:55.251Z,2.72
2023-11-12T09:52:24.587Z,3.05
2023-11-12T09:54:51.683Z,3.30
2023-11-12T09:57:19.440Z,2.70
2023-11-12T09:59:46.051Z,2.47
2023-11-12T10:02:13.853Z,3.47
2023-11-12T10:04:46.076Z,2.85
2023-11-12T10:07:12.753Z,2.17
2023-11-12T10:09:40.009Z,2.58
2023-11-12T10:12:07.396Z,3.05
2023-11-12T10:14:34.273Z,2.63
2023-11-12T10:17:08.909Z,3.00
2023-11-12T10:19:36.407Z,3.20
2023-11-12T10:22:04.845Z,2.70
2023-11-12T10:24:42.641Z,2.60
2023-11-12T10:27:12.664Z,2.40
2023-11-12T10:29:40.816Z,2.60
2023-11-12T10:32:07.866Z,2.72
2023-11-12T10:34:35.285Z,2.13
2023-11-12T10:37:09.217Z,2.90
2023-11-12T10:39:36.752Z,2.25
2023-11-12T10:42:03.841Z,2.20
2023-11-12T10:44:34.868Z,2.47
2023-11-12T10:47:05.500Z,2.10
2023-11-12T10:49:35.073Z,1.80
2023-11-12T10:52:04.346Z,1.42
2023-11-12T10:54:33.094Z,1.77
2023-11-12T10:57:00.862Z,1.58
2023-11-12T10:59:32.128Z,1.55
2023-11-12T11:01:59.488Z,2.42
2023-11-12T11:04:29.841Z,1.65
2023-11-12T11:06:56.533Z,1.70
2023-11-12T11:09:24.122Z,1.80
2023-11-12T11:11:51.055Z,1.35
2023-11-12T11:14:25.087Z,3.70
2023-11-12T11:16:53.490Z,1.25
2023-11-12T11:19:46.181Z,0.98
2023-11-12T11:22:30.458Z,0.80
2023-11-12T11:24:57.964Z,1.27
2023-11-12T11:27:26.674Z,0.70
2023-11-12T11:30:14.366Z,0.93
2023-11-12T11:32:53.316Z,0.60
2023-11-12T11:35:22.329Z,0.52
2023-11-12T11:38:10.415Z,0.40
2023-11-12T11:40:38.807Z,0.30
2023-11-12T11:43:23.784Z,0.40
2023-11-12T11:46:09.591Z,0.40
2023-11-12T11:48:57.645Z,0.50
2023-11-12T11:51:35.127Z,0.45
2023-11-12T11:54:05.997Z,0.30
2023-11-12T11:56:33.109Z,0.30
2023-11-12T11:59:00.512Z,0.22
2023-11-12T12:01:27.562Z,0.50
2023-11-12T12:04:07.462Z,0.10
2023-11-12T12:06:34.873Z,0.30
2023-11-12T12:09:01.704Z,0.47
2023-11-12T12:11:28.381Z,0.20
2023-11-12T12:14:06.108Z,0.20
2023-11-12T12:16:34.135Z,0.20
2023-11-12T12:19:03.775Z,0.25
2023-11-12T12:21:32.017Z,0.20
2023-11-12T12:23:58.791Z,0.40
2023-11-12T12:26:28.112Z,0.30
2023-11-12T12:28:54.742Z,0.20
2023-11-12T12:31:21.792Z,0.22
2023-11-12T12:34:02.206Z,0.20
2023-11-12T12:36:28.830Z,0.60
2023-11-12T12:38:59.973Z,0.30
2023-11-12T12:41:27.836Z,0.20
2023-11-12T12:43:57.789Z,0.30
2023-11-12T12:46:42.232Z,0.10
2023-11-12T12:49:10.468Z,0.20
2023-11-12T12:51:39.422Z,0.20
2023-11-12T12:54:06.156Z,0.60
2023-11-12T12:56:33.535Z,0.50
2023-11-12T12:59:03.154Z,0.40
2023-11-12T13:01:30.118Z,0.30
2023-11-12T13:03:56.719Z,0.40
2023-11-12T13:06:24.424Z,0.60
2023-11-12T13:08:52.195Z,0.73
2023-11-12T13:11:22.020Z,0.60
2023-11-12T13:13:50.488Z,0.82
2023-11-12T13:16:17.181Z,0.70
2023-11-12T13:18:43.867Z,0.40
2023-11-12T13:21:12.672Z,0.30
2023-11-12T13:23:40.011Z,1.60
2023-11-12T13:26:07.174Z,0.70
2023-11-12T13:28:34.233Z,0.73
2023-11-12T13:31:01.829Z,0.85
2023-11-12T13:33:28.977Z,0.77
2023-11-12T13:36:00.946Z,0.70
2023-11-12T13:38:29.108Z,1.10
2023-11-12T13:40:58.497Z,0.57
2023-11-12T13:43:25.293Z,0.50
2023-11-12T13:45:52.053Z,0.22
2023-11-12T13:48:20.548Z,0.40
2023-11-12T13:50:48.238Z,0.30
2023-11-12T13:53:14.857Z,0.65
2023-11-12T13:55:42.495Z,0.70
2023-11-12T13:58:12.803Z,0.90
2023-11-12T14:00:43.218Z,0.50
2023-11-12T14:03:11.828Z,0.30
2023-11-12T14:05:39.021Z,0.50
2023-11-12T14:08:05.831Z,0.80
2023-11-12T14:10:32.697Z,0.60
2023-11-12T14:13:00.685Z,0.60
2023-11-12T14:15:29.286Z,0.47
2023-11-12T14:17:56.369Z,0.50
2023-11-12T14:20:23.635Z,0.70
2023-11-12T14:22:52.287Z,0.60
2023-11-12T14:25:22.690Z,0.77
2023-11-12T14:27:50.504Z,0.50
2023-11-12T14:30:20.380Z,0.50
2023-11-12T14:32:48.116Z,0.80
2023-11-12T14:35:17.972Z,0.82
2023-11-12T14:37:45.420Z,1.80
2023-11-12T14:40:13.633Z,0.98
2023-11-12T14:42:40.890Z,0.90
2023-11-12T14:45:18.226Z,1.23
2023-11-12T14:47:53.276Z,1.23
2023-11-12T14:50:20.309Z,1.13
2023-11-12T14:52:47.061Z,0.70
2023-11-12T14:55:22.291Z,1.33
2023-11-12T14:57:54.978Z,0.85
2023-11-12T15:00:29.127Z,1.15
2023-11-12T15:03:00.738Z,0.80
2023-11-12T15:05:29.360Z,1.42
2023-11-12T15:07:56.679Z,0.98
2023-11-12T15:10:25.975Z,0.90
2023-11-12T15:12:52.839Z,1.67
2023-11-12T15:15:20.866Z,2.10
2023-11-12T15:17:47.918Z,1.80
2023-11-12T15:20:15.061Z,2.70
2023-11-12T15:22:46.952Z,2.70
2023-11-12T15:25:17.657Z,2.80
2023-11-12T15:27:49.696Z,3.47
2023-11-12T15:30:18.288Z,4.30
2023-11-12T15:32:46.281Z,2.70
2023-11-12T15:35:17.202Z,3.33
2023-11-12T15:37:44.845Z,4.38
2023-11-12T15:40:20.971Z,3.30
2023-11-12T15:42:51.237Z,3.90
2023-11-12T15:45:19.356Z,3.17
2023-11-12T15:47:47.522Z,4.97
2023-11-12T15:50:14.922Z,3.97
2023-11-12T15:52:43.189Z,2.80
2023-11-12T15:55:13.614Z,1.58
2023-11-12T15:57:42.441Z,1.80
2023-11-12T16:00:15.452Z,1.73
2023-11-12T16:02:52.738Z,3.15
2023-11-12T16:05:21.509Z,2.42
2023-11-12T16:07:49.626Z,2.33
2023-11-12T16:10:16.934Z,2.75
2023-11-12T16:12:43.603Z,3.20
2023-11-12T16:15:16.306Z,2.97
2023-11-12T16:17:44.031Z,3.28
2023-11-12T16:20:13.598Z,6.82
2023-11-12T16:22:41.282Z,6.60
2023-11-12T16:25:09.630Z,4.70
2023-11-12T16:27:36.707Z,4.07
2023-11-12T16:30:04.408Z,2.53
2023-11-12T16:32:31.083Z,3.83
2023-11-12T16:34:57.857Z,2.38
2023-11-12T16:37:25.049Z,2.10
2023-11-12T16:39:52.134Z,1.95
2023-11-12T16:42:21.312Z,3.10
2023-11-12T16:44:47.923Z,10.38
2023-11-12T16:47:17.101Z,6.65
2023-11-12T16:49:45.652Z,2.70
2023-11-12T16:52:13.871Z,1.27
2023-11-12T16:54:40.497Z,1.90
2023-11-12T16:57:13.763Z,1.65
2023-11-12T16:59:41.799Z,2.08
2023-11-12T17:02:10.470Z,2.10
2023-11-12T17:04:39.323Z,1.65
2023-11-12T17:07:09.521Z,2.00
2023-11-12T17:09:36.333Z,1.70
2023-11-12T17:12:03.021Z,2.38
2023-11-12T17:14:30.505Z,1.88
2023-11-12T17:16:57.235Z,1.73
2023-11-12T17:19:23.867Z,3.03
2023-11-12T17:21:51.785Z,1.80
2023-11-12T17:24:18.775Z,1.75
2023-11-12T17:26:46.817Z,1.70
2023-11-12T17:29:13.573Z,4.55
2023-11-12T17:31:40.199Z,7.07
2023-11-12T17:34:06.890Z,8.25
2023-11-12T17:36:33.892Z,6.60
2023-11-12T17:39:01.068Z,7.40
2023-11-12T17:41:28.092Z,6.85
2023-11-12T17:43:57.627Z,3.33
2023-11-12T17:46:24.397Z,3.33
2023-11-12T17:48:51.690Z,2.85
2023-11-12T17:51:20.994Z,2.47
2023-11-12T17:53:47.764Z,1.55
2023-11-12T17:56:14.585Z,1.17
2023-11-12T17:58:41.211Z,1.38
2023-11-12T18:01:10.043Z,1.58
2023-11-12T18:03:37.073Z,2.10
2023-11-12T18:06:06.570Z,1.63
2023-11-12T18:08:34.888Z,2.60
2023-11-12T18:11:02.051Z,3.53
2023-11-12T18:13:31.221Z,3.30
2023-11-12T18:15:59.053Z,2.92
2023-11-12T18:18:28.974Z,4.72
2023-11-12T18:20:56.243Z,7.40
2023-11-12T18:23:26.108Z,5.97
2023-11-12T18:25:53.699Z,6.80
2023-11-12T18:28:21.263Z,5.43
2023-11-12T18:30:49.711Z,5.25
2023-11-12T18:33:17.107Z,4.47
2023-11-12T18:35:45.634Z,4.38
2023-11-12T18:38:14.083Z,3.10
2023-11-12T18:40:43.533Z,3.72
2023-11-12T18:43:13.123Z,3.08
2023-11-12T18:45:39.904Z,2.33
2023-11-12T18:48:06.793Z,1.40
2023-11-12T18:50:33.720Z,2.50
2023-11-12T18:53:00.429Z,1.40
2023-11-12T18:55:27.134Z,1.88
2023-11-12T18:57:54.216Z,1.38
2023-11-12T19:00:21.898Z,1.00
2023-11-12T19:02:51.787Z,0.77
2023-11-12T19:05:19.912Z,0.80
2023-11-12T19:07:47.776Z,1.00
2023-11-12T19:10:14.934Z,1.45
2023-11-12T19:12:42.589Z,0.80
2023-11-12T19:15:13.507Z,0.80
2023-11-12T19:17:47.250Z,0.87
2023-11-12T19:20:15.505Z,0.90
2023-11-12T19:22:43.456Z,0.50
2023-11-12T19:25:11.562Z,0.60
2023-11-12T19:27:40.019Z,0.30
2023-11-12T19:30:13.948Z,0.30
2023-11-12T19:32:43.341Z,0.30
2023-11-12T19:35:10.143Z,0.20
2023-11-12T19:37:38.763Z,0.35
2023-11-12T19:40:07.327Z,0.10
2023-11-12T19:42:33.999Z,0.10
2023-11-12T19:45:00.629Z,0.20
2023-11-12T19:47:29.150Z,0.30
2023-11-12T19:50:02.112Z,0.28
2023-11-12T19:54:56.806Z,0.17
2023-11-12T19:57:23.509Z,0.20
2023-11-12T19:59:50.240Z,0.20
2023-11-12T20:02:18.185Z,0.20
2023-11-12T20:04:44.977Z,0.10
2023-11-12T20:07:11.657Z,0.15
2023-11-12T20:09:39.600Z,0.20
2023-11-12T20:12:07.038Z,0.10
2023-11-12T20:14:33.648Z,0.10
2023-11-12T20:17:00.712Z,0.82
2023-11-12T20:19:31.755Z,0.10
2023-11-12T20:21:58.677Z,0.10
2023-11-12T20:24:27.059Z,0.10
2023-11-12T20:26:55.521Z,0.20
2023-11-12T20:29:23.055Z,0.28
2023-11-12T20:31:57.972Z,0.52
2023-11-12T20:34:25.601Z,0.30
2023-11-12T20:36:52.822Z,0.28
2023-11-12T20:39:21.615Z,0.40
2023-11-12T20:41:51.544Z,0.60
2023-11-12T20:44:19.082Z,1.00
2023-11-12T20:46:46.682Z,0.68
2023-11-12T20:49:18.565Z,0.90
2023-11-12T20:51:47.435Z,1.48
2023-11-12T20:54:16.795Z,0.93
2023-11-12T20:56:43.729Z,2.35
2023-11-12T20:59:11.297Z,1.33
2023-11-12T21:01:39.939Z,2.15
2023-11-12T21:04:11.482Z,1.45
2023-11-12T21:06:41.232Z,2.00
2023-11-12T21:09:09.780Z,1.90
2023-11-12T21:11:41.006Z,3.70
2023-11-12T21:14:13.001Z,2.58
2023-11-12T21:16:41.003Z,1.85
2023-11-12T21:19:11.798Z,2.75
2023-11-12T21:21:39.802Z,2.90
2023-11-12T21:24:09.786Z,2.83
2023-11-12T21:26:37.635Z,2.30
2023-11-12T21:29:04.878Z,2.97
2023-11-12T21:31:31.557Z,2.92
2023-11-12T21:33:58.686Z,3.17
2023-11-12T21:36:25.891Z,3.13
2023-11-12T21:38:54.337Z,2.67
2023-11-12T21:41:22.736Z,3.42
2023-11-12T21:43:52.312Z,3.95
2023-11-12T21:46:20.666Z,3.25
2023-11-12T21:48:51.433Z,3.70
2023-11-12T21:51:19.378Z,2.50
2023-11-12T21:53:46.472Z,2.80
2023-11-12T21:56:14.403Z,3.58
2023-11-12T21:58:41.857Z,2.90
2023-11-12T22:01:12.505Z,5.05
2023-11-12T22:03:40.653Z,3.33
2023-11-12T22:06:12.027Z,3.50
2023-11-12T22:08:41.458Z,3.67
2023-11-12T22:11:08.214Z,2.13
2023-11-12T22:13:34.999Z,3.40
2023-11-12T22:16:01.709Z,2.40
2023-11-12T22:18:29.138Z,3.65
2023-11-12T22:20:55.858Z,2.92
2023-11-12T22:23:23.519Z,3.20
2023-11-12T22:25:51.167Z,16.95
2023-11-12T22:28:17.978Z,2.92
2023-11-12T22:30:44.721Z,2.03
2023-11-12T22:33:11.397Z,2.33
2023-11-12T22:35:37.979Z,3.13
2023-11-12T22:38:04.720Z,2.42
2023-11-12T22:40:31.349Z,2.05
2023-11-12T22:42:58.027Z,2.35
2023-11-12T22:45:24.691Z,1.95
2023-11-12T22:47:51.445Z,1.95
2023-11-12T22:50:18.855Z,4.15
2023-11-12T22:52:45.607Z,3.05
2023-11-12T22:55:13.202Z,1.98
2023-11-12T22:57:41.102Z,1.70
2023-11-12T23:00:40.263Z,1.90
2023-11-12T23:03:11.446Z,1.90
2023-11-12T23:05:38.350Z,1.92
2023-11-12T23:08:07.535Z,2.00
2023-11-12T23:10:43.423Z,1.80
2023-11-12T23:13:11.737Z,1.35
2023-11-12T23:15:39.765Z,1.48
2023-11-12T23:18:08.307Z,1.30
2023-11-12T23:20:35.778Z,1.35
2023-11-12T23:23:03.280Z,1.60
2023-11-12T23:25:31.447Z,1.85
2023-11-12T23:27:59.912Z,2.00
2023-11-12T23:30:29.133Z,1.10
2023-11-12T23:32:56.206Z,1.70
2023-11-12T23:35:23.030Z,1.77
2023-11-12T23:37:50.881Z,1.20
2023-11-12T23:40:17.792Z,1.35
2023-11-12T23:42:45.239Z,2.63
2023-11-12T23:45:13.141Z,0.75
2023-11-12T23:47:40.970Z,0.90
2023-11-12T23:50:08.888Z,0.88
2023-11-12T23:52:35.586Z,0.80
2023-11-12T23:55:04.919Z,0.60
2023-11-12T23:57:31.999Z,0.77
